createdAt,value
2019-05-25T00:01:39.737Z,23.70
2019-05-25T00:04:10.679Z,21.02
2019-05-25T00:06:41.728Z,21.62
2019-05-25T00:09:18.940Z,22.73
2019-05-25T00:11:57.716Z,26.77
2019-05-25T00:14:36.893Z,21.10
2019-05-25T00:17:08.063Z,22.45
2019-05-25T00:19:39.138Z,17.20
2019-05-25T00:22:10.207Z,16.48
2019-05-25T00:24:41.227Z,17.05
2019-05-25T00:27:12.212Z,19.00
2019-05-25T00:29:44.865Z,17.15
2019-05-25T00:32:15.892Z,20.00
2019-05-25T00:34:46.714Z,18.57
2019-05-25T00:37:17.985Z,17.30
2019-05-25T00:39:49.041Z,16.37
2019-05-25T00:42:22.212Z,19.50
2019-05-25T00:44:53.076Z,18.67
2019-05-25T00:47:25.493Z,18.57
2019-05-25T00:49:56.537Z,21.17
2019-05-25T00:58:08.174Z,19.23
2019-05-25T01:00:41.211Z,16.85
2019-05-25T01:03:12.052Z,23.98
2019-05-25T01:05:43.276Z,17.35
2019-05-25T01:08:14.290Z,16.20
2019-05-25T01:10:45.564Z,21.95
2019-05-25T01:13:16.788Z,17.30
2019-05-25T01:15:49.160Z,19.98
2019-05-25T01:18:20.661Z,18.85
2019-05-25T01:20:53.387Z,19.50
2019-05-25T01:23:24.443Z,16.17
2019-05-25T01:25:55.480Z,23.45
2019-05-25T01:28:26.512Z,19.73
2019-05-25T01:30:57.569Z,20.62
2019-05-25T01:33:28.702Z,19.35
2019-05-25T01:35:59.806Z,16.65
2019-05-25T01:38:33.700Z,20.68
2019-05-25T01:41:04.791Z,19.98
2019-05-25T01:43:36.008Z,19.77
2019-05-25T01:46:07.052Z,20.37
2019-05-25T01:48:38.058Z,20.68
2019-05-25T01:51:09.031Z,18.60
2019-05-25T01:53:40.239Z,16.97
2019-05-25T01:56:11.450Z,19.65
2019-05-25T01:58:42.419Z,22.35
2019-05-25T02:01:13.603Z,20.30
2019-05-25T02:04:03.504Z,18.87
2019-05-25T02:06:34.571Z,19.82
2019-05-25T02:09:07.154Z,27.15
2019-05-25T02:11:38.949Z,22.27
2019-05-25T02:14:10.129Z,21.73
2019-05-25T02:16:41.427Z,22.10
2019-05-25T02:19:32.568Z,21.12
2019-05-25T02:22:23.736Z,23.27
2019-05-25T02:24:58.519Z,21.68
2019-05-25T02:27:29.432Z,25.93
2019-05-25T02:30:01.570Z,23.87
2019-05-25T02:32:32.774Z,26.97
2019-05-25T02:35:03.731Z,25.10
2019-05-25T02:37:34.557Z,20.52
2019-05-25T02:40:07.144Z,24.47
2019-05-25T02:42:38.135Z,21.35
2019-05-25T02:45:09.937Z,22.40
2019-05-25T02:47:40.935Z,20.27
2019-05-25T02:50:12.013Z,23.10
2019-05-25T02:52:42.933Z,21.05
2019-05-25T02:55:14.531Z,19.42
2019-05-25T02:57:45.594Z,19.32
2019-05-25T03:02:59.114Z,20.72
2019-05-25T03:05:30.114Z,22.17
2019-05-25T03:08:01.234Z,23.10
2019-05-25T03:10:32.738Z,17.23
2019-05-25T03:13:05.714Z,23.92
2019-05-25T03:15:37.044Z,20.08
2019-05-25T03:18:09.344Z,20.32
2019-05-25T03:20:40.533Z,22.87
2019-05-25T03:23:11.730Z,20.75
2019-05-25T03:25:49.716Z,15.88
2019-05-25T03:28:15.212Z,17.70
2019-05-25T03:30:46.303Z,21.93
2019-05-25T03:33:18.563Z,18.35
2019-05-25T03:35:50.432Z,23.27
2019-05-25T03:38:21.674Z,20.20
2019-05-25T03:40:52.893Z,23.18
2019-05-25T03:43:23.919Z,18.27
2019-05-25T03:45:55.050Z,22.73
2019-05-25T03:48:26.204Z,21.07
2019-05-25T03:50:57.122Z,20.00
2019-05-25T03:53:29.170Z,21.27
2019-05-25T03:56:05.987Z,20.00
2019-05-25T03:58:33.305Z,22.48
2019-05-25T04:01:04.386Z,21.27
2019-05-25T04:03:35.591Z,21.77
2019-05-25T04:06:09.310Z,20.60
2019-05-25T04:08:40.637Z,24.80
2019-05-25T04:11:11.855Z,20.12
2019-05-25T04:13:45.092Z,18.75
2019-05-25T04:16:16.651Z,23.30
2019-05-25T04:18:47.487Z,22.52
2019-05-25T04:21:18.482Z,20.97
2019-05-25T04:23:52.083Z,20.23
2019-05-25T04:26:23.776Z,19.20
2019-05-25T04:28:57.326Z,24.27
2019-05-25T04:31:28.176Z,22.55
2019-05-25T04:33:59.288Z,20.02
2019-05-25T04:36:30.361Z,22.13
2019-05-25T04:39:21.813Z,24.07
2019-05-25T04:41:54.119Z,21.20
2019-05-25T04:44:25.352Z,22.37
2019-05-25T04:46:58.557Z,22.73
2019-05-25T04:49:29.250Z,21.45
2019-05-25T04:52:01.746Z,22.70
2019-05-25T04:54:32.658Z,18.40
2019-05-25T04:57:04.279Z,20.25
2019-05-25T04:59:38.249Z,20.25
2019-05-25T05:02:09.102Z,21.87
2019-05-25T05:04:40.034Z,22.75
2019-05-25T05:07:11.241Z,25.82
2019-05-25T05:09:42.440Z,25.15
2019-05-25T05:12:13.437Z,21.60
2019-05-25T05:14:47.374Z,20.70
2019-05-25T05:17:18.656Z,21.57
2019-05-25T05:19:50.429Z,20.30
2019-05-25T05:22:21.543Z,18.48
2019-05-25T05:24:53.392Z,19.42
2019-05-25T05:27:24.374Z,18.50
2019-05-25T05:29:55.673Z,20.40
2019-05-25T05:32:27.953Z,20.08
2019-05-25T05:34:59.297Z,18.60
2019-05-25T05:37:31.652Z,20.10
2019-05-25T05:40:05.665Z,19.98
2019-05-25T05:42:39.219Z,18.12
2019-05-25T05:45:10.501Z,17.80
2019-05-25T05:47:43.218Z,22.07
2019-05-25T05:50:14.413Z,22.37
2019-05-25T05:52:46.216Z,20.77
2019-05-25T05:55:20.683Z,18.65
2019-05-25T05:57:52.316Z,22.95
2019-05-25T06:00:23.640Z,24.00
2019-05-25T06:02:54.859Z,19.40
2019-05-25T06:05:25.898Z,22.45
2019-05-25T06:07:56.988Z,17.62
2019-05-25T06:10:28.042Z,19.35
2019-05-25T06:12:58.857Z,21.80
2019-05-25T06:15:34.239Z,19.30
2019-05-25T06:18:05.861Z,17.05
2019-05-25T06:20:38.632Z,20.88
2019-05-25T06:23:12.355Z,17.82
2019-05-25T06:25:41.986Z,18.30
2019-05-25T06:28:13.002Z,20.65
2019-05-25T06:30:44.561Z,18.80
2019-05-25T06:33:16.826Z,18.23
2019-05-25T06:35:47.739Z,24.77
2019-05-25T06:38:18.776Z,19.45
2019-05-25T06:40:49.993Z,20.20
2019-05-25T06:43:21.023Z,19.17
2019-05-25T06:45:55.024Z,23.10
2019-05-25T06:48:26.042Z,18.37
2019-05-25T06:50:58.790Z,22.50
2019-05-25T06:53:29.874Z,25.23
2019-05-25T06:56:01.019Z,21.77
2019-05-25T06:58:31.864Z,19.05
2019-05-25T07:01:04.364Z,19.25
2019-05-25T07:03:35.354Z,18.32
2019-05-25T07:06:06.459Z,19.95
2019-05-25T07:08:37.588Z,17.25
2019-05-25T07:11:08.576Z,22.60
2019-05-25T07:13:39.410Z,17.80
2019-05-25T07:16:10.479Z,17.12
2019-05-25T07:18:41.485Z,19.52
2019-05-25T07:21:12.700Z,19.37
2019-05-25T07:23:45.414Z,20.48
2019-05-25T07:26:15.982Z,15.70
2019-05-25T07:28:46.985Z,17.07
2019-05-25T07:31:18.075Z,17.00
2019-05-25T07:33:49.084Z,17.20
2019-05-25T07:36:20.113Z,21.10
2019-05-25T07:38:51.008Z,19.32
2019-05-25T07:41:21.948Z,17.95
2019-05-25T07:43:53.005Z,19.67
2019-05-25T07:46:25.269Z,22.42
2019-05-25T07:48:56.238Z,23.77
2019-05-25T07:51:27.551Z,16.30
2019-05-25T07:54:01.006Z,19.52
2019-05-25T07:56:32.042Z,19.92
2019-05-25T07:59:02.971Z,16.87
2019-05-25T08:01:34.245Z,16.20
2019-05-25T08:04:05.310Z,20.82
2019-05-25T08:06:36.256Z,20.88
2019-05-25T08:09:10.086Z,17.98
2019-05-25T08:11:59.945Z,15.55
2019-05-25T08:14:31.077Z,15.75
2019-05-25T08:17:02.073Z,19.40
2019-05-25T08:19:33.163Z,18.82
2019-05-25T08:22:04.423Z,17.17
2019-05-25T08:24:35.445Z,16.52
2019-05-25T08:27:06.557Z,15.38
2019-05-25T08:29:37.598Z,17.50
2019-05-25T08:32:17.426Z,19.10
2019-05-25T08:34:48.479Z,17.60
2019-05-25T08:37:20.846Z,16.75
2019-05-25T08:39:51.749Z,16.67
2019-05-25T08:42:23.119Z,19.50
2019-05-25T08:44:54.205Z,19.07
2019-05-25T08:47:25.458Z,16.12
2019-05-25T08:49:56.600Z,16.15
2019-05-25T08:52:27.887Z,19.15
2019-05-25T08:54:59.182Z,17.80
2019-05-25T08:57:32.119Z,20.23
2019-05-25T09:00:23.300Z,16.52
2019-05-25T09:02:54.732Z,15.58
2019-05-25T09:05:26.211Z,16.02
2019-05-25T09:08:07.044Z,15.35
2019-05-25T09:10:38.049Z,16.05
2019-05-25T09:13:09.540Z,17.23
2019-05-25T09:15:40.611Z,18.90
2019-05-25T09:18:21.249Z,18.82
2019-05-25T09:20:52.758Z,21.85
2019-05-25T09:23:23.975Z,15.00
2019-05-25T09:25:55.323Z,18.57
2019-05-25T09:28:36.322Z,18.70
2019-05-25T09:31:07.737Z,16.77
2019-05-25T09:33:40.212Z,16.65
2019-05-25T09:36:11.229Z,16.80
2019-05-25T09:38:43.485Z,21.48
2019-05-25T09:41:14.734Z,15.95
2019-05-25T09:43:45.627Z,16.80
2019-05-25T09:46:16.866Z,18.67
2019-05-25T09:48:48.281Z,26.10
2019-05-25T09:51:22.140Z,21.95
2019-05-25T09:53:54.404Z,16.30
2019-05-25T09:56:25.696Z,22.22
2019-05-25T09:58:58.137Z,16.55
2019-05-25T10:01:30.867Z,14.35
2019-05-25T10:04:06.529Z,19.30
2019-05-25T10:06:44.190Z,13.75
2019-05-25T10:09:19.190Z,15.83
2019-05-25T10:14:21.871Z,19.92
2019-05-25T10:16:54.535Z,17.60
2019-05-25T10:19:25.725Z,21.00
2019-05-25T10:21:59.376Z,15.38
2019-05-25T10:24:35.032Z,22.00
2019-05-25T10:27:13.189Z,14.15
2019-05-25T10:29:47.544Z,16.07
2019-05-25T10:32:20.279Z,17.87
2019-05-25T10:34:54.492Z,17.12
2019-05-25T10:37:25.660Z,20.05
2019-05-25T10:39:56.756Z,14.45
2019-05-25T10:42:28.142Z,15.83
2019-05-25T10:45:00.651Z,15.20
2019-05-25T10:47:32.135Z,19.73
2019-05-25T10:50:03.332Z,20.50
2019-05-25T10:52:38.250Z,14.65
2019-05-25T10:55:12.001Z,16.45
2019-05-25T10:57:43.347Z,16.40
2019-05-25T11:00:15.930Z,15.35
2019-05-25T11:02:50.743Z,16.70
2019-05-25T11:05:24.440Z,19.67
2019-05-25T11:07:55.853Z,18.67
2019-05-25T11:10:27.414Z,20.50
2019-05-25T11:12:59.868Z,19.37
2019-05-25T11:15:30.995Z,22.00
2019-05-25T11:18:02.034Z,17.05
2019-05-25T11:20:33.152Z,15.45
2019-05-25T11:23:04.518Z,18.92
2019-05-25T11:25:37.717Z,16.85
2019-05-25T11:28:08.781Z,17.45
2019-05-25T11:30:40.514Z,19.05
2019-05-25T11:33:11.672Z,19.32
2019-05-25T11:35:43.214Z,16.57
2019-05-25T11:38:14.453Z,14.05
2019-05-25T11:40:45.790Z,16.90
2019-05-25T11:43:18.421Z,15.53
2019-05-25T11:45:49.729Z,13.75
2019-05-25T11:48:22.629Z,15.55
2019-05-25T11:50:54.536Z,12.75
2019-05-25T11:53:26.354Z,15.88
2019-05-25T11:56:00.391Z,17.23
2019-05-25T11:58:44.860Z,17.77
2019-05-25T12:01:05.439Z,17.92
2019-05-25T12:03:38.259Z,15.98
2019-05-25T12:06:10.515Z,13.65
2019-05-25T12:08:41.952Z,14.05
2019-05-25T12:11:13.474Z,13.78
2019-05-25T12:14:05.193Z,15.65
2019-05-25T12:16:36.015Z,14.43
2019-05-25T12:19:06.961Z,15.93
2019-05-25T12:21:39.139Z,13.38
2019-05-25T12:24:09.995Z,12.88
2019-05-25T12:26:41.131Z,15.80
2019-05-25T12:29:12.586Z,13.48
2019-05-25T12:32:04.348Z,14.45
2019-05-25T12:34:34.814Z,13.25
2019-05-25T12:37:05.771Z,17.10
2019-05-25T12:39:36.804Z,16.10
2019-05-25T12:42:07.919Z,14.28
2019-05-25T12:44:38.864Z,15.90
2019-05-25T12:47:09.781Z,15.20
2019-05-25T12:49:50.659Z,15.58
2019-05-25T12:52:13.007Z,15.35
2019-05-25T12:54:44.958Z,15.63
2019-05-25T12:57:16.172Z,14.80
2019-05-25T12:59:47.194Z,14.30
2019-05-25T13:02:18.409Z,16.15
2019-05-25T13:04:49.448Z,14.50
2019-05-25T13:07:20.418Z,18.30
2019-05-25T13:09:51.459Z,18.60
2019-05-25T13:12:22.325Z,14.30
2019-05-25T13:14:54.257Z,12.93
2019-05-25T13:17:26.184Z,16.15
2019-05-25T13:19:57.525Z,16.20
2019-05-25T13:22:28.442Z,19.32
2019-05-25T13:24:59.388Z,19.07
2019-05-25T13:27:31.504Z,16.93
2019-05-25T13:30:03.237Z,17.48
2019-05-25T13:32:35.871Z,10.85
2019-05-25T13:35:08.460Z,12.75
2019-05-25T13:37:39.949Z,13.05
2019-05-25T13:40:11.212Z,12.90
2019-05-25T13:42:42.112Z,12.82
2019-05-25T13:45:14.327Z,14.03
2019-05-25T13:47:45.207Z,14.70
2019-05-25T13:50:16.220Z,13.70
2019-05-25T13:52:47.513Z,16.57
2019-05-25T13:55:19.860Z,13.70
2019-05-25T13:57:50.748Z,15.32
2019-05-25T14:00:21.951Z,15.13
2019-05-25T14:02:52.875Z,15.48
2019-05-25T14:05:23.811Z,17.23
2019-05-25T14:07:54.849Z,19.27
2019-05-25T14:10:25.845Z,17.02
2019-05-25T14:12:57.049Z,17.98
2019-05-25T14:15:28.351Z,21.75
2019-05-25T14:17:59.348Z,17.92
2019-05-25T14:20:30.274Z,16.62
2019-05-25T14:23:01.350Z,16.00
2019-05-25T14:25:32.598Z,14.65
2019-05-25T14:28:03.650Z,13.55
2019-05-25T14:30:35.207Z,12.58
2019-05-25T14:33:06.211Z,14.63
2019-05-25T14:35:37.409Z,13.62
2019-05-25T14:38:08.511Z,17.80
2019-05-25T14:43:30.563Z,13.25
2019-05-25T14:46:01.543Z,15.15
2019-05-25T14:48:32.728Z,12.20
2019-05-25T14:51:03.801Z,9.25
2019-05-25T14:53:34.732Z,12.53
2019-05-25T14:56:05.551Z,7.33
2019-05-25T14:58:37.374Z,10.28
2019-05-25T15:01:10.979Z,9.28
2019-05-25T15:03:42.059Z,13.95
2019-05-25T15:06:32.207Z,12.23
2019-05-25T15:09:03.041Z,9.05
2019-05-25T15:11:34.159Z,8.40
2019-05-25T15:14:05.139Z,9.95
2019-05-25T15:16:36.176Z,12.85
2019-05-25T15:19:08.309Z,12.45
2019-05-25T15:21:39.230Z,10.82
2019-05-25T15:24:10.418Z,13.78
2019-05-25T15:26:42.588Z,11.05
2019-05-25T15:29:13.605Z,10.75
2019-05-25T15:31:44.943Z,12.58
2019-05-25T15:34:15.884Z,11.57
2019-05-25T15:36:46.893Z,18.30
2019-05-25T15:39:19.319Z,12.45
2019-05-25T15:41:50.385Z,9.95
2019-05-25T15:44:22.279Z,10.90
2019-05-25T15:46:53.375Z,10.98
2019-05-25T15:49:32.799Z,11.73
2019-05-25T15:51:56.813Z,11.80
2019-05-25T15:54:27.833Z,15.03
2019-05-25T15:56:58.694Z,14.90
2019-05-25T15:59:30.059Z,11.63
2019-05-25T16:02:01.109Z,9.05
2019-05-25T16:04:32.161Z,13.15
2019-05-25T16:07:03.148Z,16.45
2019-05-25T16:09:34.083Z,13.00
2019-05-25T16:12:05.003Z,12.60
2019-05-25T16:14:36.047Z,10.45
2019-05-25T16:17:07.079Z,12.33
2019-05-25T16:19:38.012Z,10.70
2019-05-25T16:22:09.156Z,10.13
2019-05-25T16:24:40.426Z,12.80
2019-05-25T16:27:11.501Z,11.35
2019-05-25T16:29:42.528Z,14.87
2019-05-25T16:32:13.787Z,9.88
2019-05-25T16:34:44.685Z,12.40
2019-05-25T16:37:15.791Z,10.43
2019-05-25T16:39:46.831Z,13.95
2019-05-25T16:42:17.758Z,12.68
2019-05-25T16:44:48.669Z,12.82
2019-05-25T16:47:19.619Z,15.03
2019-05-25T16:49:50.656Z,11.40
2019-05-25T16:52:21.800Z,11.38
2019-05-25T16:54:53.653Z,15.43
2019-05-25T16:57:25.521Z,13.38
2019-05-25T16:59:56.577Z,17.25
2019-05-25T17:02:27.878Z,13.62
2019-05-25T17:04:58.836Z,16.82
2019-05-25T17:07:29.782Z,14.87
2019-05-25T17:10:00.796Z,15.88
2019-05-25T17:12:31.733Z,17.30
2019-05-25T17:15:02.858Z,20.92
2019-05-25T17:17:34.993Z,17.65
2019-05-25T17:20:06.823Z,15.45
2019-05-25T17:22:37.848Z,15.40
2019-05-25T17:25:09.565Z,17.87
2019-05-25T17:27:40.747Z,16.42
2019-05-25T17:30:12.484Z,16.23
2019-05-25T17:32:43.966Z,22.35
2019-05-25T17:35:16.128Z,18.40
2019-05-25T17:37:47.018Z,16.57
2019-05-25T17:40:18.655Z,17.62
2019-05-25T17:42:49.686Z,17.92
2019-05-25T17:45:20.606Z,18.52
2019-05-25T17:47:51.436Z,19.67
2019-05-25T17:50:22.486Z,14.58
2019-05-25T17:52:53.481Z,19.30
2019-05-25T17:55:24.680Z,21.55
2019-05-25T17:57:55.835Z,15.90
2019-05-25T18:00:41.885Z,20.40
2019-05-25T18:05:43.317Z,16.65
2019-05-25T18:08:14.578Z,19.92
2019-05-25T18:10:54.360Z,20.75
2019-05-25T18:13:18.079Z,18.70
2019-05-25T18:15:49.090Z,17.37
2019-05-25T18:18:20.032Z,18.40
2019-05-25T18:20:51.025Z,15.30
2019-05-25T18:23:22.551Z,16.40
2019-05-25T18:25:53.632Z,19.85
2019-05-25T18:28:24.552Z,15.65
2019-05-25T18:30:55.459Z,15.40
2019-05-25T18:33:26.765Z,16.62
2019-05-25T18:35:57.755Z,15.70
2019-05-25T18:38:28.860Z,17.00
2019-05-25T18:40:59.779Z,14.05
2019-05-25T18:43:30.992Z,15.28
2019-05-25T18:46:03.722Z,12.25
2019-05-25T18:48:34.700Z,15.98
2019-05-25T18:51:06.175Z,12.37
2019-05-25T18:53:37.275Z,13.28
2019-05-25T18:56:08.174Z,9.85
2019-05-25T18:58:39.116Z,12.37
2019-05-25T19:01:10.151Z,12.95
2019-05-25T19:03:41.155Z,17.40
2019-05-25T19:06:12.859Z,12.45
2019-05-25T19:08:44.025Z,13.50
2019-05-25T19:11:14.942Z,12.10
2019-05-25T19:13:46.700Z,13.58
2019-05-25T19:16:17.827Z,11.40
2019-05-25T19:18:48.842Z,10.32
2019-05-25T19:21:19.776Z,12.03
2019-05-25T19:23:50.767Z,10.45
2019-05-25T19:26:21.699Z,12.55
2019-05-25T19:28:52.739Z,11.68
2019-05-25T19:31:23.680Z,10.32
2019-05-25T19:33:54.977Z,13.70
2019-05-25T19:36:25.655Z,11.53
2019-05-25T19:38:56.747Z,11.75
2019-05-25T19:41:27.540Z,11.83
2019-05-25T19:43:58.522Z,9.55
2019-05-25T19:46:29.539Z,10.25
2019-05-25T19:49:00.441Z,9.90
2019-05-25T19:51:31.409Z,13.22
2019-05-25T19:54:03.712Z,15.63
2019-05-25T19:56:34.681Z,13.50
2019-05-25T19:59:05.692Z,10.95
2019-05-25T20:01:37.187Z,9.28
2019-05-25T20:04:08.217Z,11.28
2019-05-25T20:06:39.188Z,12.35
2019-05-25T20:09:11.580Z,13.20
2019-05-25T20:11:42.919Z,11.88
2019-05-25T20:14:13.987Z,10.50
2019-05-25T20:16:45.003Z,12.53
2019-05-25T20:19:15.925Z,12.68
2019-05-25T20:21:47.131Z,12.33
2019-05-25T20:24:18.286Z,11.70
2019-05-25T20:26:49.227Z,12.40
2019-05-25T20:29:20.160Z,16.40
2019-05-25T20:31:51.151Z,13.43
2019-05-25T20:34:22.869Z,12.13
2019-05-25T20:36:53.948Z,13.90
2019-05-25T20:39:24.977Z,12.82
2019-05-25T20:41:55.770Z,12.88
2019-05-25T20:44:26.707Z,11.73
2019-05-25T20:46:57.754Z,14.58
2019-05-25T20:49:28.685Z,13.93
2019-05-25T20:51:59.604Z,10.82
2019-05-25T20:54:30.628Z,11.73
2019-05-25T20:57:01.546Z,11.48
2019-05-25T20:59:32.759Z,12.53
2019-05-25T21:02:03.924Z,11.78
2019-05-25T21:04:34.851Z,11.90
2019-05-25T21:07:05.879Z,10.03
2019-05-25T21:09:36.890Z,11.85
2019-05-25T21:12:09.513Z,10.65
2019-05-25T21:14:40.672Z,11.70
2019-05-25T21:17:11.605Z,10.43
2019-05-25T21:19:42.531Z,12.23
2019-05-25T21:22:13.561Z,10.72
2019-05-25T21:24:44.479Z,11.00
2019-05-25T21:27:15.421Z,12.50
2019-05-25T21:29:46.407Z,14.18
2019-05-25T21:32:17.247Z,11.05
2019-05-25T21:34:48.204Z,13.38
2019-05-25T21:37:20.430Z,12.75
2019-05-25T21:39:51.357Z,13.53
2019-05-25T21:42:22.303Z,11.85
2019-05-25T21:44:53.299Z,14.53
2019-05-25T21:47:24.229Z,15.40
2019-05-25T21:49:55.147Z,12.65
2019-05-25T21:52:26.123Z,13.83
2019-05-25T21:54:57.128Z,13.40
2019-05-25T21:57:28.060Z,11.68
2019-05-25T21:59:59.119Z,11.57
2019-05-25T22:02:30.128Z,13.43
2019-05-25T22:05:01.047Z,17.73
2019-05-25T22:07:32.067Z,12.68
2019-05-25T22:10:03.279Z,15.58
2019-05-25T22:12:34.743Z,13.32
2019-05-25T22:15:06.656Z,12.98
2019-05-25T22:17:37.579Z,11.95
2019-05-25T22:20:10.517Z,13.15
2019-05-25T22:22:41.465Z,12.55
2019-05-25T22:25:12.522Z,15.18
2019-05-25T22:27:43.503Z,16.32
2019-05-25T22:30:14.826Z,12.98
2019-05-25T22:32:45.773Z,14.45
2019-05-25T22:35:16.965Z,15.00
2019-05-25T22:37:47.797Z,12.05
2019-05-25T22:40:19.521Z,13.25
2019-05-25T22:42:50.650Z,14.73
2019-05-25T22:45:21.889Z,17.05
2019-05-25T22:47:52.965Z,15.58
2019-05-25T22:50:24.074Z,19.07
2019-05-25T22:52:57.314Z,20.97
2019-05-25T22:55:28.232Z,15.38
2019-05-25T22:57:59.187Z,16.12
2019-05-25T23:00:30.099Z,16.55
2019-05-25T23:03:01.227Z,17.55
2019-05-25T23:05:52.246Z,17.92
2019-05-25T23:08:23.341Z,13.95
2019-05-25T23:10:54.029Z,16.65
2019-05-25T23:13:25.295Z,16.55
2019-05-25T23:15:56.192Z,13.88
2019-05-25T23:18:28.012Z,12.70
2019-05-25T23:20:58.984Z,15.25
2019-05-25T23:23:31.599Z,11.88
2019-05-25T23:26:02.627Z,15.45
2019-05-25T23:28:33.603Z,22.00
2019-05-25T23:31:04.531Z,18.60
2019-05-25T23:33:35.436Z,15.65
2019-05-25T23:36:06.453Z,14.60
2019-05-25T23:38:37.675Z,15.28
2019-05-25T23:41:09.162Z,15.15
2019-05-25T23:43:40.070Z,11.63
2019-05-25T23:46:11.071Z,18.12
2019-05-25T23:48:42.037Z,12.95
2019-05-25T23:51:13.034Z,14.60
2019-05-25T23:53:44.134Z,13.48
2019-05-25T23:56:15.112Z,18.92
2019-05-25T23:58:46.024Z,17.02
